createdAt,value
2018-09-28T00:01:15.227Z,75.16
2018-09-28T00:03:43.627Z,75.76
2018-09-28T00:06:11.997Z,74.87
2018-09-28T00:08:40.395Z,74.77
2018-09-28T00:11:08.767Z,74.80
2018-09-28T00:13:37.220Z,74.88
2018-09-28T00:16:05.562Z,75.14
2018-09-28T00:18:33.963Z,75.00
2018-09-28T00:21:02.325Z,74.63
2018-09-28T00:23:30.720Z,74.32
2018-09-28T00:25:59.159Z,74.68
2018-09-28T00:28:27.547Z,74.40
2018-09-28T00:30:55.923Z,74.24
2018-09-28T00:33:24.314Z,74.79
2018-09-28T00:35:52.696Z,74.39
2018-09-28T00:38:21.109Z,74.18
2018-09-28T00:40:49.483Z,74.05
2018-09-28T00:43:17.884Z,74.29
2018-09-28T00:45:46.541Z,74.99
2018-09-28T00:48:15.349Z,74.25
2018-09-28T00:50:43.722Z,74.36
2018-09-28T00:53:12.128Z,74.75
2018-09-28T00:55:40.506Z,74.86
2018-09-28T00:58:08.915Z,74.45
2018-09-28T01:00:37.303Z,74.63
2018-09-28T01:03:05.701Z,74.06
2018-09-28T01:05:34.083Z,74.22
2018-09-28T01:08:02.495Z,74.84
2018-09-28T01:10:30.870Z,74.64
2018-09-28T01:12:59.267Z,74.96
2018-09-28T01:15:27.637Z,74.26
2018-09-28T01:17:56.051Z,74.66
2018-09-28T01:20:24.453Z,75.89
2018-09-28T01:22:52.835Z,75.71
2018-09-28T01:25:21.237Z,76.35
2018-09-28T01:27:49.630Z,73.89
2018-09-28T01:30:18.067Z,71.10
2018-09-28T01:32:46.473Z,70.89
2018-09-28T01:35:14.878Z,70.09
2018-09-28T01:37:43.263Z,70.21
2018-09-28T01:40:11.662Z,70.87
2018-09-28T01:42:40.038Z,70.48
2018-09-28T01:45:08.444Z,71.01
2018-09-28T01:47:36.818Z,71.24
2018-09-28T01:50:05.230Z,70.75
2018-09-28T01:52:33.631Z,71.88
2018-09-28T01:55:02.036Z,72.36
2018-09-28T01:57:30.409Z,72.31
2018-09-28T01:59:58.843Z,72.08
2018-09-28T02:02:27.525Z,73.24
2018-09-28T02:04:55.963Z,73.16
2018-09-28T02:07:24.532Z,73.58
2018-09-28T02:09:52.927Z,74.03
2018-09-28T02:12:21.318Z,74.34
2018-09-28T02:14:49.709Z,73.80
2018-09-28T02:17:18.077Z,74.07
2018-09-28T02:19:46.483Z,74.06
2018-09-28T02:22:14.859Z,74.86
2018-09-28T02:24:43.257Z,74.59
2018-09-28T02:27:11.658Z,74.36
2018-09-28T02:29:40.062Z,74.03
2018-09-28T02:32:08.443Z,74.34
2018-09-28T02:34:36.846Z,73.40
2018-09-28T02:37:05.223Z,72.46
2018-09-28T02:39:33.617Z,71.53
2018-09-28T02:42:01.999Z,71.00
2018-09-28T02:44:30.414Z,70.70
2018-09-28T02:46:58.790Z,70.08
2018-09-28T02:49:27.178Z,68.63
2018-09-28T02:51:55.543Z,68.23
2018-09-28T02:54:23.947Z,67.74
2018-09-28T02:56:52.383Z,67.89
2018-09-28T02:59:20.734Z,68.21
2018-09-28T03:01:49.110Z,67.47
2018-09-28T03:04:17.523Z,67.94
2018-09-28T03:06:45.891Z,67.81
2018-09-28T03:09:14.290Z,66.36
2018-09-28T03:11:42.679Z,65.99
2018-09-28T03:14:11.095Z,65.98
2018-09-28T03:16:39.512Z,65.47
2018-09-28T03:19:07.880Z,65.44
2018-09-28T03:21:36.274Z,65.08
2018-09-28T03:24:04.660Z,64.45
2018-09-28T03:26:33.059Z,64.79
2018-09-28T03:29:01.450Z,65.32
2018-09-28T03:31:29.862Z,65.61
2018-09-28T03:33:58.247Z,66.15
2018-09-28T03:36:26.671Z,65.96
2018-09-28T03:38:55.043Z,65.82
2018-09-28T03:41:23.456Z,65.85
2018-09-28T03:43:51.851Z,66.42
2018-09-28T03:46:20.327Z,65.92
2018-09-28T03:48:48.715Z,66.73
2018-09-28T03:51:17.109Z,66.36
2018-09-28T03:53:45.491Z,66.54
2018-09-28T03:56:13.893Z,67.19
2018-09-28T03:58:42.270Z,67.26
2018-09-28T04:01:10.663Z,67.26
2018-09-28T04:03:39.030Z,66.76
2018-09-28T04:06:07.423Z,67.12
2018-09-28T04:08:35.794Z,66.89
2018-09-28T04:11:04.196Z,67.03
2018-09-28T04:13:33.012Z,66.85
2018-09-28T04:16:01.798Z,67.00
2018-09-28T04:18:30.165Z,67.46
2018-09-28T04:20:58.553Z,67.04
2018-09-28T04:23:26.921Z,66.86
2018-09-28T04:25:55.310Z,66.97
2018-09-28T04:28:23.701Z,67.53
2018-09-28T04:30:52.246Z,67.30
2018-09-28T04:33:20.613Z,67.28
2018-09-28T04:35:49.011Z,66.68
2018-09-28T04:38:17.390Z,66.96
2018-09-28T04:40:45.791Z,66.06
2018-09-28T04:43:14.167Z,65.57
2018-09-28T04:45:43.242Z,65.63
2018-09-28T04:48:11.578Z,65.59
2018-09-28T04:50:40.578Z,65.56
2018-09-28T04:53:09.485Z,65.23
2018-09-28T04:55:37.882Z,65.65
2018-09-28T04:58:06.285Z,65.12
2018-09-28T05:00:34.726Z,64.59
2018-09-28T05:03:03.081Z,64.82
2018-09-28T05:05:31.482Z,64.64
2018-09-28T05:07:59.866Z,65.06
2018-09-28T05:10:28.270Z,65.08
2018-09-28T05:12:56.685Z,65.28
2018-09-28T05:15:25.095Z,64.75
2018-09-28T05:17:53.469Z,63.96
2018-09-28T05:20:21.870Z,64.41
2018-09-28T05:22:50.259Z,64.10
2018-09-28T05:25:18.735Z,64.40
2018-09-28T05:27:47.089Z,64.19
2018-09-28T05:30:15.466Z,64.38
2018-09-28T05:32:43.999Z,64.09
2018-09-28T05:35:12.275Z,63.94
2018-09-28T05:37:40.711Z,64.42
2018-09-28T05:40:09.091Z,64.18
2018-09-28T05:42:37.530Z,63.29
2018-09-28T05:45:05.907Z,63.27
2018-09-28T05:47:34.307Z,62.51
2018-09-28T05:50:02.680Z,62.65
2018-09-28T05:52:31.083Z,62.50
2018-09-28T05:54:59.467Z,62.05
2018-09-28T05:57:27.866Z,62.30
2018-09-28T06:00:02.254Z,62.10
2018-09-28T06:02:35.962Z,62.07
2018-09-28T06:05:09.667Z,61.52
2018-09-28T06:07:38.309Z,61.74
2018-09-28T06:10:06.689Z,60.99
2018-09-28T06:12:35.114Z,61.58
2018-09-28T06:15:03.494Z,61.77
2018-09-28T06:17:31.893Z,61.63
2018-09-28T06:20:00.281Z,60.86
2018-09-28T06:22:28.681Z,61.91
2018-09-28T06:24:57.083Z,61.17
2018-09-28T06:27:25.514Z,60.97
2018-09-28T06:29:53.935Z,60.73
2018-09-28T06:32:22.334Z,61.44
2018-09-28T06:34:50.708Z,61.37
2018-09-28T06:37:19.102Z,61.29
2018-09-28T06:39:47.477Z,60.45
2018-09-28T06:42:15.912Z,60.69
2018-09-28T06:44:44.380Z,61.13
2018-09-28T06:47:12.712Z,60.34
2018-09-28T06:49:41.135Z,59.96
2018-09-28T06:52:09.530Z,60.24
2018-09-28T06:54:37.905Z,59.81
2018-09-28T06:57:06.301Z,60.00
2018-09-28T06:59:34.678Z,60.19
2018-09-28T07:02:03.079Z,59.29
2018-09-28T07:04:31.458Z,59.47
2018-09-28T07:06:59.861Z,59.33
2018-09-28T07:09:28.293Z,58.94
2018-09-28T07:11:56.737Z,59.57
2018-09-28T07:14:25.096Z,58.63
2018-09-28T07:16:53.510Z,58.83
2018-09-28T07:19:21.886Z,57.78
2018-09-28T07:21:50.277Z,58.14
2018-09-28T07:24:18.741Z,58.27
2018-09-28T07:26:47.077Z,57.92
2018-09-28T07:29:15.513Z,58.28
2018-09-28T07:31:43.882Z,58.16
2018-09-28T07:34:12.274Z,57.93
2018-09-28T07:36:40.783Z,57.03
2018-09-28T07:39:10.404Z,56.70
2018-09-28T07:41:39.004Z,57.48
2018-09-28T07:44:07.393Z,57.29
2018-09-28T07:46:35.797Z,57.16
2018-09-28T07:49:04.207Z,56.85
2018-09-28T07:51:32.601Z,57.03
2018-09-28T07:54:00.998Z,56.42
2018-09-28T07:56:29.394Z,56.17
2018-09-28T07:58:57.798Z,56.52
2018-09-28T08:01:26.235Z,56.49
2018-09-28T08:03:54.654Z,55.67
2018-09-28T08:06:23.019Z,55.34
2018-09-28T08:08:51.418Z,56.03
2018-09-28T08:11:19.794Z,55.54
2018-09-28T08:13:48.195Z,55.21
2018-09-28T08:16:16.576Z,55.10
2018-09-28T08:18:44.973Z,55.42
2018-09-28T08:21:13.426Z,54.85
2018-09-28T08:23:41.824Z,55.03
2018-09-28T08:26:10.259Z,54.46
2018-09-28T08:28:38.658Z,54.62
2018-09-28T08:31:07.038Z,53.90
2018-09-28T08:33:35.434Z,54.12
2018-09-28T08:36:03.914Z,53.47
2018-09-28T08:38:32.317Z,53.27
2018-09-28T08:41:00.698Z,53.43
2018-09-28T08:43:29.158Z,53.91
2018-09-28T08:45:57.494Z,52.87
2018-09-28T08:48:25.893Z,54.02
2018-09-28T08:50:54.275Z,53.53
2018-09-28T08:53:22.672Z,52.75
2018-09-28T08:55:51.055Z,53.31
2018-09-28T08:58:19.450Z,52.87
2018-09-28T09:00:47.826Z,52.43
2018-09-28T09:03:16.222Z,52.15
2018-09-28T09:05:44.590Z,51.64
2018-09-28T09:08:12.982Z,49.97
2018-09-28T09:10:41.351Z,49.92
2018-09-28T09:13:10.813Z,49.84
2018-09-28T09:15:39.195Z,50.43
2018-09-28T09:18:07.768Z,48.93
2018-09-28T09:20:36.076Z,49.03
2018-09-28T09:23:04.467Z,49.42
2018-09-28T09:25:32.981Z,50.20
2018-09-28T09:28:01.389Z,49.82
2018-09-28T09:30:29.793Z,49.18
2018-09-28T09:32:58.157Z,48.97
2018-09-28T09:35:26.808Z,47.88
2018-09-28T09:37:55.186Z,46.98
2018-09-28T09:40:23.585Z,46.83
2018-09-28T09:42:51.974Z,47.28
2018-09-28T09:45:20.381Z,47.97
2018-09-28T09:47:48.762Z,47.18
2018-09-28T09:50:17.163Z,47.77
2018-09-28T09:52:45.537Z,48.18
2018-09-28T09:55:13.946Z,47.42
2018-09-28T09:57:42.337Z,47.06
2018-09-28T10:00:10.741Z,47.62
2018-09-28T10:02:44.397Z,46.49
2018-09-28T10:05:12.794Z,45.82
2018-09-28T10:07:41.162Z,46.33
2018-09-28T10:10:09.558Z,46.59
2018-09-28T10:12:38.014Z,47.41
2018-09-28T10:15:06.530Z,46.99
2018-09-28T10:17:34.897Z,46.79
2018-09-28T10:20:03.292Z,46.36
2018-09-28T10:22:31.665Z,47.32
2018-09-28T10:25:00.070Z,47.66
2018-09-28T10:27:28.499Z,47.05
2018-09-28T10:29:56.885Z,45.97
2018-09-28T10:32:25.275Z,45.30
2018-09-28T10:34:53.670Z,45.01
2018-09-28T10:37:22.050Z,44.83
2018-09-28T10:39:50.694Z,44.40
2018-09-28T10:42:19.078Z,44.86
2018-09-28T10:44:49.227Z,43.95
2018-09-28T10:47:17.649Z,44.55
2018-09-28T10:49:46.062Z,43.55
2018-09-28T10:52:14.738Z,43.21
2018-09-28T10:54:42.986Z,42.43
2018-09-28T10:57:11.525Z,42.11
2018-09-28T10:59:39.958Z,41.68
2018-09-28T11:02:08.373Z,41.73
2018-09-28T11:04:36.949Z,42.57
2018-09-28T11:07:05.315Z,42.80
2018-09-28T11:09:33.772Z,43.28
2018-09-28T11:12:02.164Z,42.82
2018-09-28T11:14:30.670Z,41.99
2018-09-28T11:16:59.127Z,41.94
2018-09-28T11:19:28.351Z,42.43
2018-09-28T11:21:56.805Z,42.65
2018-09-28T11:24:25.271Z,42.49
2018-09-28T11:26:53.728Z,42.67
2018-09-28T11:29:22.179Z,44.34
2018-09-28T11:31:50.603Z,43.41
2018-09-28T11:34:19.039Z,42.19
2018-09-28T11:36:47.446Z,42.75
2018-09-28T11:39:15.868Z,42.91
2018-09-28T11:41:44.297Z,42.94
2018-09-28T11:44:12.758Z,43.08
2018-09-28T11:46:41.221Z,43.25
2018-09-28T11:49:09.626Z,42.83
2018-09-28T11:51:38.075Z,43.02
2018-09-28T11:54:06.553Z,41.50
2018-09-28T11:56:35.693Z,41.68
2018-09-28T11:59:04.118Z,42.07
2018-09-28T12:01:32.489Z,41.79
2018-09-28T12:04:00.893Z,41.30
2018-09-28T12:06:29.323Z,41.85
2018-09-28T12:08:57.685Z,42.03
2018-09-28T12:11:26.051Z,42.75
2018-09-28T12:13:54.455Z,42.19
2018-09-28T12:16:22.846Z,42.05
2018-09-28T12:18:51.307Z,42.09
2018-09-28T12:21:19.750Z,41.74
2018-09-28T12:23:48.114Z,41.55
2018-09-28T12:26:16.490Z,41.63
2018-09-28T12:28:44.910Z,41.20
2018-09-28T12:31:13.292Z,41.71
2018-09-28T12:33:41.716Z,40.81
2018-09-28T12:36:10.090Z,41.09
2018-09-28T12:38:38.489Z,41.26
2018-09-28T12:41:07.066Z,40.01
2018-09-28T12:43:35.483Z,39.59
2018-09-28T12:46:03.877Z,39.20
2018-09-28T12:48:32.273Z,40.49
2018-09-28T12:51:00.682Z,40.61
2018-09-28T12:53:29.104Z,41.25
2018-09-28T12:55:57.491Z,40.33
2018-09-28T12:58:25.870Z,41.18
2018-09-28T13:00:54.407Z,41.37
2018-09-28T13:03:22.697Z,40.57
2018-09-28T13:05:51.149Z,41.56
2018-09-28T13:08:19.581Z,42.34
2018-09-28T13:10:48.412Z,42.27
2018-09-28T13:13:17.466Z,41.57
2018-09-28T13:15:45.901Z,41.45
2018-09-28T13:18:14.309Z,42.05
2018-09-28T13:20:42.782Z,41.94
2018-09-28T13:23:11.113Z,42.02
2018-09-28T13:25:39.506Z,41.74
2018-09-28T13:28:07.903Z,42.07
2018-09-28T13:30:36.304Z,42.08
2018-09-28T13:33:04.762Z,43.00
2018-09-28T13:35:33.283Z,41.75
2018-09-28T13:38:01.658Z,40.74
2018-09-28T13:40:30.081Z,40.87
2018-09-28T13:42:58.456Z,41.53
2018-09-28T13:45:26.893Z,41.76
2018-09-28T13:47:55.297Z,42.29
2018-09-28T13:50:23.833Z,42.43
2018-09-28T13:52:52.204Z,42.82
2018-09-28T13:55:20.607Z,41.85
2018-09-28T13:57:48.987Z,42.14
2018-09-28T14:00:17.423Z,42.09
2018-09-28T14:02:45.864Z,42.80
2018-09-28T14:05:14.221Z,41.81
2018-09-28T14:07:42.593Z,42.04
2018-09-28T14:10:11.042Z,43.11
2018-09-28T14:12:39.482Z,42.31
2018-09-28T14:15:07.830Z,41.46
2018-09-28T14:17:36.234Z,41.82
2018-09-28T14:20:05.022Z,42.79
2018-09-28T14:22:33.542Z,42.51
2018-09-28T14:25:01.962Z,42.75
2018-09-28T14:27:30.339Z,41.98
2018-09-28T14:29:58.741Z,42.00
2018-09-28T14:32:27.175Z,42.88
2018-09-28T14:34:55.757Z,42.52
2018-09-28T14:37:24.125Z,42.88
2018-09-28T14:39:52.536Z,42.94
2018-09-28T14:42:21.152Z,42.07
2018-09-28T14:44:49.730Z,41.71
2018-09-28T14:47:18.041Z,41.43
2018-09-28T14:49:46.438Z,40.99
2018-09-28T14:52:14.981Z,41.79
2018-09-28T14:54:43.402Z,41.72
2018-09-28T14:57:12.252Z,41.58
2018-09-28T14:59:40.631Z,42.71
2018-09-28T15:02:09.118Z,42.37
2018-09-28T15:04:37.551Z,41.82
2018-09-28T15:07:05.915Z,41.62
2018-09-28T15:09:34.591Z,41.02
2018-09-28T15:12:03.000Z,40.75
2018-09-28T15:14:31.411Z,41.09
2018-09-28T15:16:59.821Z,41.61
2018-09-28T15:19:28.189Z,42.14
2018-09-28T15:21:56.591Z,42.69
2018-09-28T15:24:24.967Z,43.29
2018-09-28T15:26:53.369Z,43.55
2018-09-28T15:29:21.777Z,43.29
2018-09-28T15:31:50.215Z,42.82
2018-09-28T15:34:18.647Z,42.95
2018-09-28T15:36:47.132Z,43.50
2018-09-28T15:39:15.514Z,44.00
2018-09-28T15:41:43.945Z,44.03
2018-09-28T15:44:12.318Z,44.46
2018-09-28T15:46:40.721Z,43.97
2018-09-28T15:49:09.113Z,44.13
2018-09-28T15:51:37.529Z,44.28
2018-09-28T15:54:05.901Z,45.10
2018-09-28T15:56:34.320Z,45.17
2018-09-28T15:59:02.711Z,45.69
2018-09-28T16:01:31.132Z,45.72
2018-09-28T16:03:59.515Z,46.21
2018-09-28T16:06:27.937Z,46.09
2018-09-28T16:08:56.320Z,45.81
2018-09-28T16:11:24.726Z,46.63
2018-09-28T16:13:53.178Z,45.97
2018-09-28T16:16:21.578Z,46.37
2018-09-28T16:18:50.069Z,46.59
2018-09-28T16:21:18.533Z,46.10
2018-09-28T16:23:46.939Z,46.85
2018-09-28T16:26:15.334Z,46.47
2018-09-28T16:28:43.718Z,46.77
2018-09-28T16:31:12.126Z,46.94
2018-09-28T16:33:40.511Z,47.56
2018-09-28T16:36:08.958Z,47.12
2018-09-28T16:38:37.330Z,47.47
2018-09-28T16:41:05.905Z,47.86
2018-09-28T16:43:34.286Z,47.36
2018-09-28T16:46:02.681Z,48.19
2018-09-28T16:48:31.095Z,48.20
2018-09-28T16:50:59.541Z,47.74
2018-09-28T16:53:27.929Z,48.42
2018-09-28T16:55:56.339Z,48.21
2018-09-28T16:58:24.718Z,48.24
2018-09-28T17:00:53.198Z,48.83
2018-09-28T17:03:21.640Z,48.96
2018-09-28T17:05:50.041Z,48.85
2018-09-28T17:08:18.409Z,49.27
2018-09-28T17:10:46.977Z,49.53
2018-09-28T17:13:15.347Z,49.34
2018-09-28T17:15:43.751Z,49.27
2018-09-28T17:18:12.168Z,49.53
2018-09-28T17:20:40.543Z,49.79
2018-09-28T17:23:08.991Z,50.17
2018-09-28T17:25:38.063Z,50.26
2018-09-28T17:28:06.757Z,51.30
2018-09-28T17:30:35.292Z,50.99
2018-09-28T17:33:03.686Z,51.36
2018-09-28T17:35:32.070Z,51.86
2018-09-28T17:38:00.479Z,51.93
2018-09-28T17:40:28.898Z,52.89
2018-09-28T17:42:57.348Z,52.19
2018-09-28T17:45:25.726Z,52.68
2018-09-28T17:47:54.128Z,52.94
2018-09-28T17:50:22.505Z,54.11
2018-09-28T17:52:51.022Z,53.90
2018-09-28T17:55:19.419Z,53.96
2018-09-28T17:57:48.002Z,54.32
2018-09-28T18:00:16.403Z,54.33
2018-09-28T18:02:44.822Z,55.32
2018-09-28T18:05:13.205Z,55.52
2018-09-28T18:07:41.619Z,55.38
2018-09-28T18:10:10.273Z,55.91
2018-09-28T18:12:38.874Z,56.02
2018-09-28T18:15:07.362Z,55.70
2018-09-28T18:17:35.871Z,56.87
2018-09-28T18:20:04.577Z,56.91
2018-09-28T18:22:33.005Z,57.00
2018-09-28T18:25:01.489Z,57.38
2018-09-28T18:27:29.930Z,56.80
2018-09-28T18:29:58.492Z,57.46
2018-09-28T18:32:26.883Z,58.30
2018-09-28T18:34:55.375Z,57.93
2018-09-28T18:37:23.779Z,57.90
2018-09-28T18:39:52.267Z,57.64
2018-09-28T18:42:20.725Z,59.03
2018-09-28T18:44:49.228Z,59.34
2018-09-28T18:47:17.846Z,59.59
2018-09-28T18:49:46.402Z,59.71
2018-09-28T18:52:14.835Z,59.35
2018-09-28T18:54:43.236Z,60.45
2018-09-28T18:57:11.611Z,60.75
2018-09-28T18:59:40.027Z,60.73
2018-09-28T19:02:08.426Z,60.20
2018-09-28T19:04:36.824Z,61.01
2018-09-28T19:07:05.465Z,61.61
2018-09-28T19:09:33.866Z,60.86
2018-09-28T19:12:02.410Z,61.43
2018-09-28T19:14:30.782Z,61.27
2018-09-28T19:16:59.330Z,60.94
2018-09-28T19:19:27.715Z,60.92
2018-09-28T19:21:56.273Z,60.92
2018-09-28T19:24:24.651Z,61.50
2018-09-28T19:26:53.046Z,61.19
2018-09-28T19:29:21.453Z,60.87
2018-09-28T19:31:49.957Z,61.44
2018-09-28T19:34:18.460Z,60.99
2018-09-28T19:36:46.863Z,61.35
2018-09-28T19:39:15.243Z,60.69
2018-09-28T19:41:43.887Z,60.60
2018-09-28T19:44:12.274Z,59.87
2018-09-28T19:46:40.665Z,60.89
2018-09-28T19:49:09.159Z,60.70
2018-09-28T19:51:37.606Z,60.59
2018-09-28T19:54:06.002Z,61.20
2018-09-28T19:56:34.401Z,61.82
2018-09-28T19:59:02.790Z,61.67
2018-09-28T20:01:31.201Z,61.30
2018-09-28T20:04:00.259Z,61.08
2018-09-28T20:06:28.990Z,61.21
2018-09-28T20:08:57.367Z,61.65
2018-09-28T20:11:25.778Z,61.24
2018-09-28T20:13:54.162Z,60.49
2018-09-28T20:16:22.563Z,61.47
2018-09-28T20:18:50.966Z,60.40
2018-09-28T20:21:19.565Z,61.18
2018-09-28T20:23:47.928Z,60.81
2018-09-28T20:26:16.397Z,60.70
2018-09-28T20:28:44.799Z,60.92
2018-09-28T20:31:13.194Z,61.44
2018-09-28T20:33:41.567Z,61.53
2018-09-28T20:36:09.958Z,60.86
2018-09-28T20:38:38.427Z,61.38
2018-09-28T20:41:06.754Z,60.79
2018-09-28T20:43:35.124Z,61.37
2018-09-28T20:46:03.525Z,60.92
2018-09-28T20:48:31.912Z,61.38
2018-09-28T20:51:00.311Z,60.85
2018-09-28T20:53:28.869Z,61.43
2018-09-28T20:55:57.270Z,60.88
2018-09-28T20:58:25.658Z,60.67
2018-09-28T21:00:54.045Z,61.64
2018-09-28T21:03:22.451Z,61.08
2018-09-28T21:05:50.822Z,62.31
2018-09-28T21:08:19.230Z,62.29
2018-09-28T21:10:47.601Z,62.45
2018-09-28T21:13:15.994Z,63.21
2018-09-28T21:15:44.362Z,63.83
2018-09-28T21:18:12.782Z,64.35
2018-09-28T21:20:41.207Z,64.20
2018-09-28T21:23:09.595Z,65.28
2018-09-28T21:25:37.973Z,65.96
2018-09-28T21:28:06.385Z,65.64
2018-09-28T21:30:34.757Z,66.75
2018-09-28T21:33:03.150Z,65.99
2018-09-28T21:35:31.627Z,66.54
2018-09-28T21:37:59.974Z,66.85
2018-09-28T21:40:28.344Z,67.37
2018-09-28T21:42:56.747Z,67.13
2018-09-28T21:45:25.114Z,67.63
2018-09-28T21:47:53.517Z,68.07
2018-09-28T21:50:21.928Z,68.21
2018-09-28T21:52:50.317Z,68.87
2018-09-28T21:55:18.687Z,68.59
2018-09-28T21:57:47.066Z,69.28
2018-09-28T22:00:15.435Z,69.76
2018-09-28T22:02:43.911Z,69.56
2018-09-28T22:05:12.278Z,69.70
2018-09-28T22:07:40.685Z,69.48
2018-09-28T22:10:09.061Z,69.33
2018-09-28T22:12:37.421Z,69.51
2018-09-28T22:15:05.813Z,69.53
2018-09-28T22:17:34.190Z,70.20
2018-09-28T22:20:03.069Z,70.53
2018-09-28T22:22:31.529Z,70.28
2018-09-28T22:24:59.923Z,70.12
2018-09-28T22:27:28.395Z,70.39
2018-09-28T22:29:56.784Z,70.33
2018-09-28T22:32:25.180Z,70.17
2018-09-28T22:34:53.557Z,70.51
2018-09-28T22:37:21.923Z,70.62
2018-09-28T22:39:50.310Z,70.47
2018-09-28T22:42:18.683Z,70.99
2018-09-28T22:44:47.074Z,70.64
2018-09-28T22:47:15.451Z,71.08
2018-09-28T22:49:43.850Z,71.20
2018-09-28T22:52:12.241Z,71.03
2018-09-28T22:54:40.631Z,71.55
2018-09-28T22:57:08.993Z,70.90
2018-09-28T22:59:37.386Z,71.24
2018-09-28T23:02:05.752Z,71.17
2018-09-28T23:04:34.137Z,71.01
2018-09-28T23:07:02.509Z,71.64
2018-09-28T23:09:30.906Z,71.37
2018-09-28T23:11:59.345Z,71.46
2018-09-28T23:14:27.713Z,71.22
2018-09-28T23:16:56.086Z,72.03
2018-09-28T23:19:24.482Z,72.17
2018-09-28T23:21:52.941Z,71.73
2018-09-28T23:24:26.860Z,71.81
2018-09-28T23:26:55.229Z,72.20
2018-09-28T23:29:23.641Z,72.22
2018-09-28T23:31:52.006Z,72.32
2018-09-28T23:34:20.393Z,72.34
2018-09-28T23:36:48.757Z,72.12
2018-09-28T23:39:17.149Z,72.34
2018-09-28T23:41:45.518Z,72.22
2018-09-28T23:44:13.909Z,72.51
2018-09-28T23:46:42.265Z,72.85
2018-09-28T23:49:10.654Z,73.16
2018-09-28T23:51:39.022Z,72.98
2018-09-28T23:54:07.413Z,73.02
2018-09-28T23:56:35.807Z,73.23
2018-09-28T23:59:04.261Z,72.88
